Time;durP1;ratioP1;P1;durP2;ratioP2;P2;SDS_P1;SDS_P2;PMS_P1;PMS_P2;Temp;Humidity;BMP_temperature;BMP_pressure;BME280_temperature;BME280_humidity;BME280_pressure;Samples;Min_cycle;Max_cycle;Signal;HPM_P1;HPM_P2
2022/08/03 00:01:05;;;;;;;4.80;3.65;;;19.70;99.90;;;;;;4210769;28;20024;-64
2022/08/03 00:03:06;;;;;;;4.10;3.70;;;19.70;99.90;;;;;;4211858;28;20036;-64
2022/08/03 00:05:07;;;;;;;3.83;3.35;;;19.70;99.90;;;;;;4210655;28;20032;-65
2022/08/03 00:07:08;;;;;;;5.20;2.78;;;19.70;99.90;;;;;;4211609;28;20070;-64
2022/08/03 00:09:10;;;;;;;4.68;3.28;;;19.60;99.90;;;;;;4210700;28;20287;-64
2022/08/03 00:11:12;;;;;;;3.10;2.80;;;19.60;99.90;;;;;;4211837;28;20036;-63
2022/08/03 00:13:13;;;;;;;3.78;3.47;;;19.60;99.90;;;;;;4210883;28;20040;-64
2022/08/03 00:15:14;;;;;;;3.67;3.30;;;19.50;99.90;;;;;;4211703;28;20097;-64
2022/08/03 00:17:15;;;;;;;4.28;3.42;;;19.50;99.90;;;;;;4209382;28;20065;-65
2022/08/03 00:19:16;;;;;;;3.95;3.03;;;19.50;99.90;;;;;;4210903;28;20041;-64
2022/08/03 00:21:17;;;;;;;6.00;3.83;;;19.40;99.90;;;;;;4210200;28;20503;-64
2022/08/03 00:23:19;;;;;;;4.78;3.78;;;19.40;99.90;;;;;;4210808;28;20040;-64
2022/08/03 00:25:20;;;;;;;4.88;3.83;;;19.30;99.90;;;;;;4211411;28;20024;-64
2022/08/03 00:27:21;;;;;;;5.63;3.83;;;19.30;99.90;;;;;;4210229;28;20016;-64
2022/08/03 00:29:22;;;;;;;3.92;3.53;;;19.20;99.90;;;;;;4211671;28;20468;-64
2022/08/03 00:31:23;;;;;;;4.80;3.50;;;19.20;99.90;;;;;;4209622;28;20105;-64
2022/08/03 00:33:24;;;;;;;5.20;4.05;;;19.20;99.90;;;;;;4211157;28;20077;-63
2022/08/03 00:35:26;;;;;;;6.25;4.07;;;19.20;99.90;;;;;;4209885;28;20031;-64
2022/08/03 00:37:27;;;;;;;4.43;4.03;;;19.20;99.90;;;;;;4210753;28;20388;-64
2022/08/03 00:39:29;;;;;;;4.55;3.72;;;19.20;99.90;;;;;;4209968;28;20036;-64
2022/08/03 00:41:30;;;;;;;4.18;3.78;;;19.10;99.90;;;;;;4211144;28;20093;-64
2022/08/03 00:43:31;;;;;;;5.20;3.88;;;19.10;99.90;;;;;;4210046;28;20044;-64
2022/08/03 00:45:36;;;;;;;4.57;3.80;;;19.10;99.90;;;;;;4211428;28;20032;-63
2022/08/03 00:47:37;;;;;;;7.80;4.65;;;19.10;99.90;;;;;;4210192;28;20013;-63
2022/08/03 00:49:39;;;;;;;6.93;4.30;;;19.10;99.90;;;;;;4210886;28;20036;-64
2022/08/03 00:51:40;;;;;;;4.68;4.07;;;19.00;99.90;;;;;;4210528;28;20101;-64
2022/08/03 00:53:42;;;;;;;5.45;3.90;;;19.00;99.90;;;;;;4210887;28;20096;-64
2022/08/03 00:55:43;;;;;;;5.05;4.38;;;18.90;99.90;;;;;;4210885;28;20073;-63
2022/08/03 00:57:45;;;;;;;5.80;4.30;;;18.80;99.90;;;;;;4210343;28;20032;-65
2022/08/03 00:59:47;;;;;;;4.55;4.15;;;18.80;99.90;;;;;;4210209;28;20488;-64
2022/08/03 01:01:48;;;;;;;5.85;4.50;;;18.70;99.90;;;;;;4209702;28;20020;-64
2022/08/03 01:03:50;;;;;;;5.90;4.35;;;18.70;99.90;;;;;;4211335;28;20529;-64
2022/08/03 01:05:51;;;;;;;6.47;4.25;;;18.70;99.90;;;;;;4209208;28;20082;-65
2022/08/03 01:08:10;;;;;;;6.20;4.30;;;18.70;99.90;;;;;;4210260;28;20085;-64
2022/08/03 01:10:24;;;;;;;4.43;4.03;;;18.60;99.90;;;;;;4209271;28;20044;-63
2022/08/03 01:12:52;;;;;;;4.63;4.20;;;18.60;99.90;;;;;;4211258;28;20434;-64
2022/08/03 01:15:01;;;;;;;4.78;4.35;;;18.60;99.90;;;;;;4206256;28;20048;-65
2022/08/03 01:17:53;;;;;;;4.95;4.32;;;18.60;99.90;;;;;;4211012;28;20032;-64
2022/08/03 01:20:10;;;;;;;5.72;3.85;;;18.60;99.90;;;;;;4164243;28;20037;-64
2022/08/03 01:22:20;;;;;;;5.10;4.53;;;18.50;99.90;;;;;;4193496;28;20024;-63
2022/08/03 01:24:49;;;;;;;5.30;4.75;;;18.50;99.90;;;;;;4205987;28;20435;-64
2022/08/03 01:27:16;;;;;;;4.63;4.22;;;18.40;99.90;;;;;;4209911;28;20111;-63
2022/08/03 01:29:38;;;;;;;5.03;4.55;;;18.40;99.90;;;;;;4211179;28;20058;-65
2022/08/03 01:31:46;;;;;;;5.75;4.97;;;18.30;99.90;;;;;;4209499;28;20089;-63
2022/08/03 01:33:56;;;;;;;5.03;4.55;;;18.30;99.90;;;;;;4209906;28;20089;-62
2022/08/03 01:36:00;;;;;;;7.85;4.90;;;18.20;99.90;;;;;;4209917;28;20036;-63
2022/08/03 01:38:05;;;;;;;5.97;4.72;;;18.20;99.90;;;;;;4211002;28;20032;-64
2022/08/03 01:40:08;;;;;;;4.03;3.60;;;18.20;99.90;;;;;;4208597;28;20044;-63
2022/08/03 01:42:13;;;;;;;5.80;4.78;;;18.10;99.90;;;;;;4210524;28;20480;-63
2022/08/03 01:44:14;;;;;;;4.97;4.57;;;18.10;99.90;;;;;;4210224;28;20498;-63
2022/08/03 01:46:19;;;;;;;7.43;4.88;;;18.00;99.90;;;;;;4191868;28;20037;-63
2022/08/03 01:48:21;;;;;;;5.78;4.55;;;18.00;99.90;;;;;;4211699;28;20044;-64
2022/08/03 01:50:26;;;;;;;5.97;4.25;;;18.00;99.90;;;;;;4213802;28;20525;-65
2022/08/03 01:52:28;;;;;;;5.40;4.72;;;17.90;99.90;;;;;;4212658;28;20082;-63
2022/08/03 01:54:33;;;;;;;6.32;4.97;;;17.90;99.90;;;;;;4213544;28;20082;-64
2022/08/03 01:56:36;;;;;;;7.95;5.20;;;18.00;99.90;;;;;;4212405;28;20105;-63
2022/08/03 01:58:40;;;;;;;5.82;4.13;;;17.90;99.90;;;;;;4212867;28;20020;-64
2022/08/03 02:00:43;;;;;;;6.65;5.05;;;18.00;99.90;;;;;;4213072;28;20024;-63
2022/08/03 02:02:49;;;;;;;5.78;4.82;;;18.00;99.90;;;;;;4213016;28;20081;-65
2022/08/03 02:04:53;;;;;;;11.50;4.72;;;18.10;99.90;;;;;;4213414;28;20024;-62
2022/08/03 02:06:54;;;;;;;7.55;4.43;;;18.10;99.90;;;;;;4211839;28;20048;-65
2022/08/03 02:08:58;;;;;;;5.03;4.40;;;18.10;99.90;;;;;;4212338;28;20389;-64
2022/08/03 02:11:01;;;;;;;5.70;4.65;;;18.10;99.90;;;;;;4211898;28;20044;-64
2022/08/03 02:13:05;;;;;;;4.93;4.53;;;18.10;99.90;;;;;;4213151;28;20089;-64
2022/08/03 02:15:07;;;;;;;5.80;4.68;;;18.10;99.90;;;;;;4212527;28;20480;-63
2022/08/03 02:17:09;;;;;;;6.22;4.80;;;18.10;99.90;;;;;;4213225;28;20035;-64
2022/08/03 02:19:11;;;;;;;6.80;4.70;;;18.20;99.90;;;;;;4211319;28;20040;-63
2022/08/03 02:21:14;;;;;;;5.68;4.57;;;18.20;99.90;;;;;;4212507;28;20060;-64
2022/08/03 02:23:17;;;;;;;5.55;4.57;;;18.10;99.90;;;;;;4212242;28;20476;-64
2022/08/03 02:25:18;;;;;;;4.60;4.20;;;18.10;99.90;;;;;;4213462;28;20085;-64
2022/08/03 02:27:23;;;;;;;6.18;5.10;;;18.10;99.90;;;;;;4212200;28;20023;-64
2022/08/03 02:29:28;;;;;;;4.75;4.30;;;18.10;99.90;;;;;;4213073;28;20085;-64
2022/08/03 02:31:35;;;;;;;5.57;4.68;;;18.10;99.90;;;;;;4211304;28;20043;-63
2022/08/03 02:33:41;;;;;;;5.45;4.60;;;18.10;99.90;;;;;;4212394;28;20048;-64
2022/08/03 02:35:43;;;;;;;4.97;4.13;;;18.10;99.90;;;;;;4211854;28;20032;-64
2022/08/03 02:37:48;;;;;;;4.90;4.40;;;18.10;99.90;;;;;;4212869;28;20028;-64
2022/08/03 02:39:52;;;;;;;5.05;4.55;;;18.10;99.90;;;;;;4211383;28;20085;-63
2022/08/03 02:42:01;;;;;;;6.30;4.57;;;18.10;99.90;;;;;;4212275;28;20078;-65
2022/08/03 02:44:08;;;;;;;6.10;4.82;;;18.10;99.90;;;;;;4212760;28;20039;-64
2022/08/03 02:46:13;;;;;;;6.55;4.55;;;18.10;99.90;;;;;;4211379;28;20094;-65
2022/08/03 02:48:22;;;;;;;5.15;4.43;;;18.10;99.90;;;;;;4211776;28;20036;-64
2022/08/03 02:50:25;;;;;;;6.18;4.45;;;18.10;99.90;;;;;;4211797;28;20086;-63
2022/08/03 02:52:28;;;;;;;5.28;4.78;;;18.10;99.90;;;;;;4211788;28;20078;-64
2022/08/03 02:54:31;;;;;;;5.60;4.90;;;18.10;99.90;;;;;;4211991;28;20081;-66
2022/08/03 02:56:34;;;;;;;6.30;4.30;;;18.10;99.90;;;;;;4212062;28;20028;-64
2022/08/03 02:58:37;;;;;;;6.78;4.45;;;18.00;99.90;;;;;;4211650;28;20468;-64
2022/08/03 03:00:40;;;;;;;5.13;4.63;;;18.00;99.90;;;;;;4212353;28;20049;-64
2022/08/03 03:02:41;;;;;;;6.28;4.93;;;18.00;99.90;;;;;;4211719;28;20077;-63
2022/08/03 03:04:44;;;;;;;5.95;5.00;;;18.00;99.90;;;;;;4211694;28;20490;-66
2022/08/03 03:06:47;;;;;;;5.22;4.72;;;18.00;99.90;;;;;;4211497;28;20016;-64
2022/08/03 03:08:49;;;;;;;7.70;4.55;;;18.00;99.90;;;;;;4212317;28;20476;-64
2022/08/03 03:10:50;;;;;;;6.28;5.22;;;18.10;99.90;;;;;;4210265;28;20093;-64
2022/08/03 03:12:55;;;;;;;8.48;4.88;;;18.00;99.90;;;;;;4211907;28;20058;-64
2022/08/03 03:14:56;;;;;;;6.72;4.93;;;18.10;99.90;;;;;;4211903;28;20025;-64
2022/08/03 03:16:58;;;;;;;6.03;5.00;;;18.20;99.90;;;;;;4212450;28;20039;-65
2022/08/03 03:19:01;;;;;;;7.18;4.78;;;18.30;99.90;;;;;;4210655;28;20033;-65
2022/08/03 03:21:04;;;;;;;5.63;5.00;;;18.40;99.90;;;;;;4211480;28;20468;-64
2022/08/03 03:23:05;;;;;;;4.80;4.40;;;18.40;99.90;;;;;;4211586;28;20066;-64
2022/08/03 03:25:07;;;;;;;5.90;4.80;;;18.50;99.90;;;;;;4211167;28;20093;-65
2022/08/03 03:27:09;;;;;;;12.77;6.25;;;18.60;99.90;;;;;;4211157;28;20460;-64
2022/08/03 03:29:10;;;;;;;7.43;5.07;;;18.70;99.90;;;;;;4211244;28;20069;-64
2022/08/03 03:31:11;;;;;;;10.63;5.07;;;18.90;99.90;;;;;;4210218;28;20048;-64
2022/08/03 03:33:13;;;;;;;7.40;5.95;;;19.00;99.90;;;;;;4208352;28;20052;-63
2022/08/03 03:35:15;;;;;;;6.53;5.00;;;19.20;99.90;;;;;;4209040;28;20500;-65
2022/08/03 03:37:16;;;;;;;8.75;4.97;;;19.30;99.90;;;;;;4210225;28;20041;-66
2022/08/03 03:39:17;;;;;;;6.15;4.85;;;19.40;99.90;;;;;;4209549;28;20458;-64
2022/08/03 03:41:18;;;;;;;9.23;5.47;;;19.60;99.90;;;;;;4205434;28;20427;-63
2022/08/03 03:43:22;;;;;;;9.57;4.85;;;19.70;99.90;;;;;;4195642;28;20024;-63
2022/08/03 03:45:23;;;;;;;5.95;4.97;;;19.90;99.90;;;;;;4197407;28;20105;-69
2022/08/03 03:47:24;;;;;;;4.90;4.50;;;20.20;99.90;;;;;;4212061;28;20024;-69
2022/08/03 03:49:26;;;;;;;8.70;4.75;;;20.40;99.90;;;;;;4210904;28;20081;-65
2022/08/03 03:51:27;;;;;;;10.18;5.03;;;20.70;99.90;;;;;;4211730;28;20043;-69
2022/08/03 03:53:28;;;;;;;5.50;4.43;;;20.90;99.90;;;;;;4210161;28;20074;-68
2022/08/03 03:55:30;;;;;;;4.90;4.40;;;21.10;99.90;;;;;;4210521;28;20090;-67
2022/08/03 03:57:31;;;;;;;7.60;5.05;;;20.90;99.90;;;;;;4208954;28;20495;-64
2022/08/03 03:59:32;;;;;;;5.70;4.65;;;20.80;99.90;;;;;;4210629;28;20028;-65
2022/08/03 04:01:33;;;;;;;5.07;4.53;;;20.70;99.90;;;;;;4194766;28;20032;-66
2022/08/03 04:03:34;;;;;;;8.98;4.45;;;20.60;99.90;;;;;;4193880;28;20124;-64
2022/08/03 04:12:51;;;;;;;7.15;5.30;;;20.10;99.90;;;;;;4206166;28;20698;-70
2022/08/03 04:14:56;;;;;;;8.93;5.20;;;20.10;99.90;;;;;;4204671;28;20031;-63
2022/08/03 04:17:01;;;;;;;8.10;5.28;;;20.00;99.90;;;;;;4206029;28;20048;-67
2022/08/03 04:19:12;;;;;;;9.07;4.90;;;20.00;99.90;;;;;;4206436;28;20033;-65
2022/08/03 04:21:15;;;;;;;5.63;5.07;;;19.90;99.90;;;;;;4204128;28;20048;-66
2022/08/03 04:23:19;;;;;;;6.72;4.90;;;19.90;99.90;;;;;;4205065;28;20081;-64
2022/08/03 04:25:24;;;;;;;11.38;5.50;;;19.90;99.90;;;;;;4204564;28;20024;-66
2022/08/03 04:27:28;;;;;;;8.27;4.80;;;20.00;99.90;;;;;;4202853;28;20044;-73
2022/08/03 04:29:33;;;;;;;9.57;5.07;;;20.10;99.90;;;;;;4202097;28;20688;-71
2022/08/03 04:31:37;;;;;;;9.20;5.00;;;20.20;99.90;;;;;;4201644;28;20508;-72
2022/08/03 04:33:40;;;;;;;5.45;4.93;;;20.50;99.90;;;;;;4204228;28;20031;-67
2022/08/03 04:35:43;;;;;;;5.57;4.70;;;21.10;99.90;;;;;;4203257;28;20036;-72
2022/08/03 04:37:51;;;;;;;6.97;4.63;;;21.70;99.90;;;;;;4203420;28;20077;-76
2022/08/03 04:39:53;;;;;;;4.53;4.13;;;22.30;99.90;;;;;;4206705;28;20105;-67
2022/08/03 04:41:58;;;;;;;4.55;4.15;;;22.80;99.90;;;;;;4210127;28;20036;-65
2022/08/03 04:44:01;;;;;;;4.72;4.15;;;23.10;99.90;;;;;;4200345;28;20081;-66
2022/08/03 04:46:03;;;;;;;8.15;4.50;;;23.10;99.90;;;;;;4204032;28;20089;-65
2022/08/03 04:48:05;;;;;;;8.65;4.45;;;23.10;99.90;;;;;;4203917;28;20657;-65
2022/08/03 04:50:08;;;;;;;8.02;4.30;;;23.30;99.90;;;;;;4203482;28;20044;-64
2022/08/03 04:52:10;;;;;;;4.80;3.78;;;23.70;99.90;;;;;;4205657;28;20066;-66
2022/08/03 04:54:17;;;;;;;4.80;3.80;;;23.60;99.90;;;;;;4204559;28;20077;-64
2022/08/03 04:56:18;;;;;;;7.05;4.38;;;23.50;99.90;;;;;;4206289;28;20075;-64
2022/08/03 04:58:19;;;;;;;8.93;6.45;;;23.50;99.90;;;;;;4205777;28;20024;-63
2022/08/03 05:00:21;;;;;;;4.75;4.35;;;23.50;99.90;;;;;;4207259;28;20089;-63
2022/08/03 05:02:23;;;;;;;6.15;3.83;;;23.20;99.90;;;;;;4199363;28;20052;-64
2022/08/03 05:04:24;;;;;;;4.57;4.10;;;23.00;99.90;;;;;;4209281;28;20077;-63
2022/08/03 05:06:25;;;;;;;5.13;3.92;;;22.80;99.90;;;;;;4210448;28;20484;-65
2022/08/03 05:08:26;;;;;;;5.50;4.47;;;22.60;99.90;;;;;;4208704;28;20136;-65
2022/08/03 05:10:28;;;;;;;6.00;3.72;;;22.60;99.90;;;;;;4209724;28;20036;-65
2022/08/03 05:12:29;;;;;;;7.60;4.13;;;22.60;99.90;;;;;;4209385;28;20105;-64
2022/08/03 05:14:30;;;;;;;5.10;3.75;;;22.80;99.90;;;;;;4211155;28;20036;-67
2022/08/03 05:16:31;;;;;;;6.90;4.70;;;22.90;99.90;;;;;;4209250;28;20024;-66
2022/08/03 05:18:32;;;;;;;5.13;3.83;;;23.00;99.90;;;;;;4210845;28;20108;-64
2022/08/03 05:20:33;;;;;;;6.63;4.47;;;23.20;99.90;;;;;;4209192;28;20483;-64
2022/08/03 05:22:34;;;;;;;6.07;3.60;;;23.50;99.90;;;;;;4212388;28;20086;-64
2022/08/03 05:24:35;;;;;;;6.97;3.50;;;23.80;99.90;;;;;;4212019;28;20036;-64
2022/08/03 05:26:37;;;;;;;6.80;3.60;;;24.00;99.90;;;;;;4213775;28;20105;-65
2022/08/03 05:28:38;;;;;;;5.15;3.63;;;24.20;99.90;;;;;;4212951;28;20085;-64
2022/08/03 05:30:39;;;;;;;7.50;3.70;;;24.50;99.90;;;;;;4212410;28;20134;-64
2022/08/03 05:32:40;;;;;;;9.95;3.45;;;24.50;99.90;;;;;;4212688;28;20044;-64
2022/08/03 05:34:42;;;;;;;4.53;4.13;;;24.40;99.90;;;;;;4194012;28;20040;-65
2022/08/03 05:36:43;;;;;;;4.57;4.13;;;24.50;99.90;;;;;;4213363;28;20020;-65
2022/08/03 05:38:44;;;;;;;5.07;3.38;;;24.30;99.90;;;;;;4212705;28;20032;-65
2022/08/03 05:40:45;;;;;;;4.20;3.38;;;24.40;99.90;;;;;;4213785;28;20028;-69
2022/08/03 05:42:46;;;;;;;6.57;3.72;;;24.50;99.90;;;;;;4211427;28;20040;-65
2022/08/03 05:44:48;;;;;;;8.05;3.45;;;24.60;99.90;;;;;;4214053;28;20469;-66
2022/08/03 05:46:49;;;;;;;9.88;4.20;;;24.80;99.90;;;;;;4211379;28;20032;-64
2022/08/03 05:48:50;;;;;;;12.52;4.15;;;25.10;99.90;;;;;;4212469;28;20438;-70
2022/08/03 05:50:51;;;;;;;5.68;3.85;;;25.50;99.90;;;;;;4212101;28;20427;-69
2022/08/03 05:52:56;;;;;;;7.70;3.60;;;26.10;99.40;;;;;;4212918;28;20040;-75
2022/08/03 05:54:57;;;;;;;4.30;3.30;;;26.60;98.70;;;;;;4211706;28;20066;-67
2022/08/03 05:56:58;;;;;;;4.70;3.00;;;27.30;98.00;;;;;;4212529;28;20048;-66
2022/08/03 05:58:59;;;;;;;4.93;3.10;;;27.80;97.20;;;;;;4193450;28;20074;-65
2022/08/03 06:01:00;;;;;;;4.20;3.20;;;28.30;96.50;;;;;;4213057;28;20028;-70
2022/08/03 06:03:02;;;;;;;7.75;3.00;;;28.50;95.70;;;;;;4211684;28;20366;-65
2022/08/03 06:05:04;;;;;;;7.32;3.13;;;28.60;95.50;;;;;;4212008;28;20451;-65
2022/08/03 06:07:05;;;;;;;5.78;3.13;;;28.60;95.20;;;;;;4212120;28;20040;-65
2022/08/03 06:09:06;;;;;;;4.28;2.85;;;28.50;95.00;;;;;;4212345;28;20023;-67
2022/08/03 06:11:07;;;;;;;3.35;3.05;;;29.10;94.50;;;;;;4212843;28;20024;-65
2022/08/03 06:13:08;;;;;;;4.75;2.55;;;29.30;93.90;;;;;;4211151;28;20443;-65
2022/08/03 06:15:09;;;;;;;2.90;2.58;;;29.90;93.40;;;;;;4212569;28;20102;-65
2022/08/03 06:17:11;;;;;;;4.03;2.95;;;30.30;92.90;;;;;;4211864;28;20040;-66
2022/08/03 06:19:13;;;;;;;8.20;3.58;;;30.40;91.90;;;;;;4212490;28;20537;-65
2022/08/03 06:21:15;;;;;;;3.63;3.30;;;30.60;91.50;;;;;;4211762;28;20055;-65
2022/08/03 06:23:16;;;;;;;4.40;2.75;;;31.00;91.10;;;;;;4212252;28;20066;-69
2022/08/03 06:25:19;;;;;;;5.25;2.92;;;31.30;90.60;;;;;;4211619;28;20058;-64
2022/08/03 06:27:20;;;;;;;5.35;3.58;;;31.70;90.10;;;;;;4213094;28;20105;-65
2022/08/03 06:29:21;;;;;;;3.72;3.00;;;31.80;88.90;;;;;;4211523;28;20461;-65
2022/08/03 06:31:24;;;;;;;8.18;3.03;;;31.50;88.40;;;;;;4212437;28;20078;-72
2022/08/03 06:33:26;;;;;;;2.95;2.75;;;31.30;88.30;;;;;;4211075;28;20048;-67
2022/08/03 06:35:27;;;;;;;5.55;3.20;;;31.40;88.00;;;;;;4212240;28;20077;-65
2022/08/03 06:37:28;;;;;;;3.60;2.90;;;31.70;87.30;;;;;;4211185;28;20089;-65
2022/08/03 06:39:29;;;;;;;4.35;2.67;;;31.70;86.80;;;;;;4212078;28;20029;-66
2022/08/03 06:41:30;;;;;;;3.22;2.90;;;31.70;86.20;;;;;;4211713;28;20442;-68
2022/08/03 06:43:36;;;;;;;5.63;2.30;;;31.70;85.70;;;;;;4211526;28;20460;-67
2022/08/03 06:45:37;;;;;;;9.65;3.53;;;31.90;85.20;;;;;;4213100;28;20097;-66
2022/08/03 06:47:39;;;;;;;7.25;2.33;;;32.10;84.70;;;;;;4210514;28;20040;-67
2022/08/03 06:49:40;;;;;;;5.13;2.60;;;32.20;84.20;;;;;;4211521;28;20036;-65
2022/08/03 06:51:41;;;;;;;4.15;2.90;;;32.30;83.70;;;;;;4210504;28;20414;-68
2022/08/03 06:53:42;;;;;;;10.45;3.33;;;32.30;83.50;;;;;;4193763;28;20036;-64
2022/08/03 06:55:43;;;;;;;15.07;2.85;;;32.20;82.90;;;;;;4211485;28;20028;-66
2022/08/03 06:57:44;;;;;;;5.00;2.72;;;32.10;83.00;;;;;;4211549;28;20028;-66
2022/08/03 06:59:46;;;;;;;8.57;3.13;;;31.90;82.20;;;;;;4210532;28;20488;-68
2022/08/03 07:01:47;;;;;;;15.35;3.33;;;31.60;82.00;;;;;;4212474;28;20032;-65
2022/08/03 07:03:48;;;;;;;10.55;4.18;;;31.00;81.70;;;;;;4210665;28;20036;-70
2022/08/03 07:05:50;;;;;;;25.55;5.50;;;30.10;82.00;;;;;;4211083;28;20040;-65
2022/08/03 07:07:55;;;;;;;14.23;4.28;;;29.90;83.10;;;;;;4211641;28;20077;-67
2022/08/03 07:09:56;;;;;;;13.63;4.03;;;30.00;83.30;;;;;;4211831;28;20020;-65
2022/08/03 07:11:58;;;;;;;15.48;3.72;;;30.10;83.00;;;;;;4211065;28;20507;-65
2022/08/03 07:13:59;;;;;;;9.68;2.90;;;30.70;82.50;;;;;;4211427;28;20046;-74
2022/08/03 07:16:00;;;;;;;11.52;3.55;;;31.20;81.30;;;;;;4211315;28;20490;-64
2022/08/03 07:18:01;;;;;;;6.22;2.90;;;31.10;80.10;;;;;;4210278;28;20040;-68
2022/08/03 07:20:06;;;;;;;16.25;3.60;;;30.20;80.30;;;;;;4211600;28;20040;-69
2022/08/03 07:22:07;;;;;;;17.33;3.70;;;29.50;81.10;;;;;;4210862;28;20024;-66
2022/08/03 07:24:08;;;;;;;7.53;3.67;;;29.10;81.90;;;;;;4212147;28;20028;-66
2022/08/03 07:26:10;;;;;;;12.10;3.65;;;28.80;82.30;;;;;;4210767;28;20028;-68
2022/08/03 07:28:11;;;;;;;12.52;3.10;;;28.70;82.30;;;;;;4212083;28;20041;-64
2022/08/03 07:30:14;;;;;;;2.85;2.50;;;28.40;82.00;;;;;;4210864;28;20093;-66
2022/08/03 07:32:15;;;;;;;3.10;2.50;;;28.10;81.20;;;;;;4211703;28;20048;-65
2022/08/03 07:34:16;;;;;;;10.27;3.08;;;28.00;81.30;;;;;;4209997;28;20048;-67
2022/08/03 07:36:17;;;;;;;3.97;2.33;;;28.00;81.30;;;;;;4211811;28;20039;-74
2022/08/03 07:38:18;;;;;;;13.45;2.80;;;27.80;81.30;;;;;;4211045;28;20695;-71
2022/08/03 07:40:19;;;;;;;6.85;2.33;;;27.90;81.70;;;;;;4193171;28;20044;-64
2022/08/03 07:42:22;;;;;;;13.52;3.20;;;27.90;81.80;;;;;;4211057;28;20464;-67
2022/08/03 07:44:23;;;;;;;6.03;2.03;;;28.00;81.70;;;;;;4210848;28;20028;-67
2022/08/03 07:46:24;;;;;;;9.98;2.58;;;28.20;81.20;;;;;;4210626;28;20028;-65
2022/08/03 07:48:25;;;;;;;16.52;3.92;;;28.50;80.70;;;;;;4210375;28;20133;-64
2022/08/03 07:50:27;;;;;;;16.00;2.67;;;28.30;80.40;;;;;;4211784;28;20956;-68
2022/08/03 07:54:48;;;;;;;11.23;2.75;;;28.50;80.50;;;;;;4211582;28;20070;-65
2022/08/03 07:56:49;;;;;;;9.15;3.28;;;28.50;80.50;;;;;;4210028;28;20361;-72
2022/08/03 07:58:51;;;;;;;15.45;3.63;;;28.70;80.90;;;;;;4210703;28;20036;-65
2022/08/03 08:00:52;;;;;;;8.43;3.00;;;29.00;80.30;;;;;;4209668;28;20032;-65
2022/08/03 08:02:53;;;;;;;15.05;2.95;;;29.30;79.80;;;;;;4211429;28;20027;-71
2022/08/03 08:04:54;;;;;;;9.43;2.67;;;29.50;79.10;;;;;;4209933;28;20078;-66
2022/08/03 08:06:55;;;;;;;15.20;2.90;;;29.20;78.70;;;;;;4210223;28;20044;-64
2022/08/03 08:09:00;;;;;;;10.40;2.22;;;29.40;79.00;;;;;;4209252;28;20085;-68
2022/08/03 08:11:01;;;;;;;9.40;2.42;;;29.30;77.90;;;;;;4210833;28;20040;-69
2022/08/03 08:13:03;;;;;;;2.33;2.10;;;29.00;78.00;;;;;;4209762;28;20097;-67
2022/08/03 08:15:05;;;;;;;8.05;2.00;;;28.80;78.00;;;;;;4211179;28;20073;-65
2022/08/03 08:17:07;;;;;;;11.02;2.53;;;28.50;78.50;;;;;;4210308;28;20161;-65
2022/08/03 08:19:08;;;;;;;14.05;2.60;;;28.40;78.80;;;;;;4210505;28;20016;-65
2022/08/03 08:21:09;;;;;;;8.52;2.70;;;28.70;79.10;;;;;;4210395;28;20019;-65
2022/08/03 08:23:10;;;;;;;7.35;2.80;;;29.00;78.80;;;;;;4210240;28;20085;-66
2022/08/03 08:25:11;;;;;;;6.35;2.38;;;28.70;78.80;;;;;;4211175;28;20041;-65
2022/08/03 08:27:12;;;;;;;5.78;2.63;;;28.60;79.00;;;;;;4209229;28;20106;-65
2022/08/03 08:29:14;;;;;;;8.80;2.95;;;28.40;79.10;;;;;;4210580;28;20885;-66
2022/08/03 08:31:15;;;;;;;5.32;2.35;;;28.00;79.20;;;;;;4210038;28;20077;-66
2022/08/03 08:33:16;;;;;;;5.35;2.30;;;28.00;79.70;;;;;;4210737;28;20063;-63
2022/08/03 08:35:18;;;;;;;3.28;2.20;;;28.30;79.60;;;;;;4209756;28;20082;-64
2022/08/03 08:37:20;;;;;;;4.60;2.17;;;28.60;79.30;;;;;;4210885;28;20032;-65
2022/08/03 08:39:22;;;;;;;12.50;2.58;;;29.00;79.60;;;;;;4190921;28;20032;-72
2022/08/03 08:41:23;;;;;;;4.75;2.38;;;29.40;79.50;;;;;;4210855;28;20024;-65
2022/08/03 08:43:24;;;;;;;6.25;1.90;;;29.50;78.60;;;;;;4209969;28;20533;-67
2022/08/03 08:45:26;;;;;;;4.03;2.30;;;29.30;78.70;;;;;;4211196;28;20538;-66
2022/08/03 08:47:29;;;;;;;7.88;1.88;;;29.20;78.80;;;;;;4209944;28;20034;-64
2022/08/03 08:49:34;;;;;;;3.58;1.92;;;29.10;78.90;;;;;;4209426;28;20468;-65
2022/08/03 08:51:39;;;;;;;2.50;1.70;;;29.00;78.70;;;;;;4209741;28;20102;-66
2022/08/03 08:53:43;;;;;;;2.25;1.85;;;29.30;78.70;;;;;;4210132;28;20020;-67
2022/08/03 08:55:46;;;;;;;1.60;1.50;;;29.60;78.30;;;;;;4210439;28;20061;-64
2022/08/03 08:57:56;;;;;;;2.33;1.92;;;29.60;77.20;;;;;;4194665;28;20029;-68
2022/08/03 09:00:00;;;;;;;2.53;1.60;;;29.20;77.40;;;;;;4213713;28;20020;-65
2022/08/03 09:02:01;;;;;;;2.35;1.60;;;28.90;78.00;;;;;;4212872;28;20036;-64
2022/08/03 09:04:06;;;;;;;3.97;1.90;;;28.80;78.30;;;;;;4213395;28;20044;-64
2022/08/03 09:06:07;;;;;;;1.90;1.65;;;28.90;77.80;;;;;;4211591;28;20048;-65
2022/08/03 09:08:08;;;;;;;8.40;2.03;;;28.70;78.20;;;;;;4212850;28;20097;-65
2022/08/03 09:10:11;;;;;;;4.85;1.90;;;28.70;78.30;;;;;;4212883;28;20054;-65
2022/08/03 09:12:12;;;;;;;19.55;4.25;;;28.80;77.60;;;;;;4212948;28;20113;-65
2022/08/03 09:14:14;;;;;;;3.28;1.50;;;28.80;77.10;;;;;;4213088;28;20020;-66
2022/08/03 09:16:20;;;;;;;1.10;1.00;;;28.80;76.40;;;;;;4213812;28;20104;-66
2022/08/03 09:18:32;;;;;;;3.83;1.65;;;28.70;75.70;;;;;;4212854;28;20089;-68
2022/08/03 09:20:35;;;;;;;19.33;3.53;;;28.50;75.00;;;;;;4213073;28;20561;-65
2022/08/03 09:22:50;;;;;;;5.00;1.60;;;28.60;76.20;;;;;;4212761;28;20481;-65
2022/08/03 09:24:59;;;;;;;10.32;1.70;;;28.90;74.60;;;;;;4214070;28;20036;-65
2022/08/03 09:27:01;;;;;;;3.42;1.10;;;28.90;75.10;;;;;;4212476;28;20024;-64
2022/08/03 09:29:08;;;;;;;1.58;1.38;;;28.90;74.80;;;;;;4213558;28;20093;-64
2022/08/03 09:31:09;;;;;;;1.42;0.98;;;29.00;74.60;;;;;;4211884;28;20148;-64
2022/08/03 09:33:15;;;;;;;3.80;1.05;;;29.00;74.50;;;;;;4213288;28;20056;-65
2022/08/03 09:35:25;;;;;;;1.73;1.05;;;29.20;74.00;;;;;;4211687;28;20089;-65
2022/08/03 09:37:26;;;;;;;4.05;1.20;;;29.10;74.20;;;;;;4212164;28;20051;-67
2022/08/03 09:39:31;;;;;;;6.88;1.75;;;29.00;74.00;;;;;;4212400;28;20472;-65
2022/08/03 09:41:32;;;;;;;1.90;1.00;;;29.00;73.90;;;;;;4213286;28;20533;-66
2022/08/03 09:43:45;;;;;;;1.40;0.90;;;29.00;73.80;;;;;;4212728;28;20024;-67
2022/08/03 09:45:46;;;;;;;3.72;1.30;;;29.10;73.70;;;;;;4213010;28;20036;-67
2022/08/03 09:47:47;;;;;;;3.65;1.50;;;29.30;74.30;;;;;;4212127;28;20048;-64
2022/08/03 09:49:57;;;;;;;3.97;1.20;;;29.60;74.10;;;;;;4212743;28;20035;-64
2022/08/03 09:52:13;;;;;;;9.30;2.00;;;29.80;72.60;;;;;;4212448;28;20025;-66
2022/08/03 09:54:34;;;;;;;4.43;1.48;;;29.80;72.60;;;;;;4211999;28;20043;-74
2022/08/03 09:56:46;;;;;;;3.90;1.10;;;29.70;72.10;;;;;;4212206;28;20093;-71
2022/08/03 09:58:48;;;;;;;1.17;0.90;;;29.50;72.10;;;;;;4212040;28;20369;-70
2022/08/03 10:00:57;;;;;;;3.55;1.00;;;29.10;73.10;;;;;;4212263;28;20081;-65
2022/08/03 10:03:04;;;;;;;2.33;0.93;;;28.80;73.00;;;;;;4212652;28;20028;-66
2022/08/03 10:05:07;;;;;;;2.45;1.30;;;28.70;73.10;;;;;;4211983;28;20028;-64
2022/08/03 10:07:09;;;;;;;5.88;2.10;;;28.50;73.50;;;;;;4212115;28;20020;-66
2022/08/03 10:09:13;;;;;;;2.92;0.80;;;28.40;73.80;;;;;;4211922;28;20036;-64
2022/08/03 10:11:29;;;;;;;1.30;1.00;;;28.30;73.90;;;;;;4211960;28;20028;-67
2022/08/03 10:13:31;;;;;;;1.15;1.00;;;28.30;74.00;;;;;;4212683;28;20036;-66
2022/08/03 10:15:32;;;;;;;5.18;1.90;;;28.30;73.90;;;;;;4211466;28;20044;-66
2022/08/03 10:17:34;;;;;;;4.80;3.35;;;28.20;74.00;;;;;;4212964;28;20403;-66
2022/08/03 10:19:35;;;;;;;5.97;1.30;;;28.10;73.80;;;;;;4210604;28;20476;-71
2022/08/03 10:21:39;;;;;;;1.35;1.10;;;28.20;73.90;;;;;;4212848;28;20024;-66
2022/08/03 10:23:40;;;;;;;2.47;1.02;;;28.40;73.70;;;;;;4211879;28;20028;-65
2022/08/03 10:25:44;;;;;;;4.55;1.10;;;28.70;73.10;;;;;;4212976;28;20036;-70
2022/08/03 10:27:49;;;;;;;1.40;1.02;;;28.80;72.70;;;;;;4211872;28;20031;-65
2022/08/03 10:29:53;;;;;;;0.93;0.70;;;29.00;73.00;;;;;;4212944;28;20077;-64
2022/08/03 10:31:57;;;;;;;1.58;0.80;;;29.00;72.40;;;;;;4211621;28;20028;-69
2022/08/03 10:34:00;;;;;;;0.80;0.80;;;28.70;72.80;;;;;;4212656;28;20097;-71
2022/08/03 10:36:04;;;;;;;4.75;2.03;;;28.60;73.00;;;;;;4210670;28;20032;-67
2022/08/03 10:38:11;;;;;;;1.13;0.98;;;28.70;72.40;;;;;;4212512;28;20460;-64
2022/08/03 10:40:14;;;;;;;1.65;1.30;;;28.80;72.10;;;;;;4211289;28;20020;-73
2022/08/03 10:42:16;;;;;;;1.65;0.68;;;29.00;72.20;;;;;;4212446;28;20024;-65
2022/08/03 10:44:19;;;;;;;10.25;2.03;;;29.10;71.90;;;;;;4211598;28;20024;-65
2022/08/03 10:46:20;;;;;;;1.10;0.88;;;29.30;71.50;;;;;;4212754;28;20035;-66
2022/08/03 10:48:22;;;;;;;1.60;1.00;;;29.30;70.90;;;;;;4212009;28;20468;-64
2022/08/03 10:50:24;;;;;;;2.42;1.25;;;29.30;70.90;;;;;;4211941;28;20028;-64